Time;durP1;ratioP1;P1;durP2;ratioP2;P2;SDS_P1;SDS_P2;PMS_P1;PMS_P2;Temp;Humidity;BMP_temperature;BMP_pressure;BME280_temperature;BME280_humidity;BME280_pressure;Samples;Min_cycle;Max_cycle;Signal;HPM_P1;HPM_P2
2021/08/07 00:01:40;;;;;;;1.05;0.88;;;;;;;18.08;100.00;99832.13;5023261;28;20049;-68
2021/08/07 00:04:05;;;;;;;0.63;0.60;;;;;;;18.04;100.00;99838.41;5033319;28;20041;-68
2021/08/07 00:06:31;;;;;;;1.00;0.68;;;;;;;18.24;100.00;99838.34;5032677;28;20040;-67
2021/08/07 00:08:56;;;;;;;1.23;0.88;;;;;;;18.16;100.00;99836.97;5031120;28;20043;-67
2021/08/07 00:11:22;;;;;;;0.68;0.68;;;;;;;18.19;100.00;99832.63;5027964;28;20037;-68
2021/08/07 00:13:53;;;;;;;0.60;0.60;;;;;;;18.13;100.00;99834.34;5032327;28;20408;-69
2021/08/07 00:16:19;;;;;;;0.70;0.68;;;;;;;18.11;100.00;99834.78;5033237;28;20048;-68
2021/08/07 00:18:44;;;;;;;0.70;0.70;;;;;;;18.10;100.00;99835.19;5030605;28;20026;-68
2021/08/07 00:21:10;;;;;;;0.88;0.70;;;;;;;18.16;100.00;99828.78;5026498;28;20494;-68
2021/08/07 00:23:36;;;;;;;1.17;0.80;;;;;;;18.03;100.00;99826.00;5032314;28;20056;-68
2021/08/07 00:26:01;;;;;;;1.10;1.00;;;;;;;18.02;100.00;99829.16;5032360;28;20025;-67
2021/08/07 00:28:27;;;;;;;0.80;0.60;;;;;;;17.87;100.00;99827.94;5024413;28;20037;-66
2021/08/07 00:30:53;;;;;;;1.00;0.85;;;;;;;17.89;100.00;99820.09;5008266;28;20029;-67
2021/08/07 00:33:18;;;;;;;0.60;0.60;;;;;;;17.91;100.00;99828.63;5029694;28;20091;-67
2021/08/07 00:35:46;;;;;;;0.70;0.60;;;;;;;17.92;100.00;99822.72;5008925;28;20061;-68
2021/08/07 00:38:13;;;;;;;1.10;0.90;;;;;;;18.03;100.00;99823.28;5010913;28;20037;-68
2021/08/07 00:40:40;;;;;;;0.68;0.68;;;;;;;17.75;100.00;99823.16;5013455;28;20445;-67
2021/08/07 00:43:09;;;;;;;2.63;1.08;;;;;;;17.80;100.00;99831.59;5030137;28;20508;-67
2021/08/07 00:45:39;;;;;;;1.00;0.80;;;;;;;17.68;100.00;99832.25;5010569;28;20133;-68
2021/08/07 00:48:08;;;;;;;0.90;0.80;;;;;;;17.48;100.00;99825.28;5013861;28;20034;-68
2021/08/07 00:50:47;;;;;;;0.75;0.70;;;;;;;17.55;100.00;99828.66;4996936;28;20075;-68
2021/08/07 00:53:19;;;;;;;1.30;0.70;;;;;;;17.60;100.00;99832.81;5014392;28;20037;-67
2021/08/07 00:55:46;;;;;;;0.60;0.60;;;;;;;17.48;100.00;99826.06;5012744;28;20048;-66
2021/08/07 00:58:11;;;;;;;1.23;0.90;;;;;;;17.31;100.00;99824.44;5026744;28;20456;-67
2021/08/07 01:00:37;;;;;;;0.93;0.75;;;;;;;17.24;100.00;99823.81;4995445;28;20038;-67
2021/08/07 01:03:29;;;;;;;1.10;0.70;;;;;;;17.45;100.00;99823.38;5006853;28;20064;-67
2021/08/07 01:06:17;;;;;;;0.60;0.60;;;;;;;17.46;100.00;99822.97;4999073;28;20441;-66
2021/08/07 01:08:58;;;;;;;0.52;0.52;;;;;;;17.34;100.00;99812.75;5009232;28;20037;-68
2021/08/07 01:11:33;;;;;;;1.33;0.90;;;;;;;17.46;100.00;99814.78;5004514;28;20052;-67
2021/08/07 01:14:04;;;;;;;0.63;0.60;;;;;;;17.46;100.00;99808.59;5012186;28;20036;-67
2021/08/07 01:16:35;;;;;;;1.05;0.90;;;;;;;17.25;100.00;99809.06;5013804;28;20486;-67
2021/08/07 01:19:08;;;;;;;0.70;0.60;;;;;;;17.48;100.00;99815.16;5010183;28;20041;-67
2021/08/07 01:21:37;;;;;;;0.75;0.75;;;;;;;17.24;100.00;99811.00;5012352;28;20038;-68
2021/08/07 01:24:14;;;;;;;1.00;0.90;;;;;;;17.32;100.00;99815.13;5004451;28;20062;-67
2021/08/07 01:26:57;;;;;;;1.05;0.90;;;;;;;17.19;100.00;99808.75;5021538;28;20701;-67
2021/08/07 01:29:26;;;;;;;0.60;0.60;;;;;;;17.42;100.00;99818.78;5012022;28;20405;-68
2021/08/07 01:31:56;;;;;;;0.80;0.80;;;;;;;17.32;100.00;99817.06;5008029;28;20045;-67
2021/08/07 01:34:33;;;;;;;0.80;0.80;;;;;;;17.12;100.00;99817.06;5004819;28;20025;-67
2021/08/07 01:37:01;;;;;;;1.42;1.10;;;;;;;17.01;100.00;99816.50;5006913;28;20057;-67
2021/08/07 01:39:47;;;;;;;1.15;0.80;;;;;;;17.10;100.00;99817.50;5006679;28;20548;-67
2021/08/07 01:42:20;;;;;;;2.97;0.80;;;;;;;17.12;100.00;99823.28;5013534;28;20095;-67
2021/08/07 01:44:52;;;;;;;1.08;0.88;;;;;;;17.22;100.00;99821.53;5024938;28;20564;-67
2021/08/07 01:47:24;;;;;;;1.52;0.93;;;;;;;17.36;100.00;99826.69;5005254;28;20443;-67
2021/08/07 01:50:09;;;;;;;0.85;0.82;;;;;;;17.25;100.00;99828.09;5013190;28;20032;-67
2021/08/07 01:52:41;;;;;;;0.70;0.65;;;;;;;17.45;100.00;99823.38;5012577;28;20033;-67
2021/08/07 01:55:16;;;;;;;0.60;0.60;;;;;;;17.29;100.00;99815.16;5008872;28;20037;-67
2021/08/07 01:57:58;;;;;;;1.10;0.85;;;;;;;17.29;100.00;99815.94;5012361;28;20397;-67
2021/08/07 02:00:25;;;;;;;0.70;0.65;;;;;;;17.31;100.00;99827.16;5021861;28;20039;-67
2021/08/07 02:02:55;;;;;;;1.00;0.82;;;;;;;17.10;100.00;99825.66;5024346;28;20084;-67
2021/08/07 02:05:27;;;;;;;1.05;0.90;;;;;;;17.08;100.00;99828.03;5007001;28;20489;-67
2021/08/07 02:07:55;;;;;;;0.73;0.73;;;;;;;17.00;100.00;99825.84;5013354;28;20033;-67
2021/08/07 02:10:24;;;;;;;0.70;0.70;;;;;;;17.05;100.00;99823.41;5011260;28;20037;-67
2021/08/07 02:12:52;;;;;;;1.60;1.40;;;;;;;17.12;100.00;99814.34;5001673;28;20493;-68
2021/08/07 02:15:21;;;;;;;0.60;0.60;;;;;;;17.14;100.00;99817.41;4995808;28;20037;-67
2021/08/07 02:17:50;;;;;;;1.15;1.00;;;;;;;16.98;100.00;99809.19;5012650;28;20446;-67
2021/08/07 02:20:19;;;;;;;0.90;0.68;;;;;;;17.02;100.00;99809.88;5001543;28;20541;-67
2021/08/07 02:22:49;;;;;;;0.75;0.75;;;;;;;17.08;100.00;99813.66;5013262;28;20030;-68
2021/08/07 02:25:16;;;;;;;1.27;0.80;;;;;;;17.24;100.00;99805.56;5020475;28;20797;-67
2021/08/07 02:27:55;;;;;;;0.77;0.75;;;;;;;17.30;100.00;99814.75;4996665;28;20542;-67
2021/08/07 02:30:26;;;;;;;;;;;;;;;17.04;100.00;99812.94;5023550;28;20516;-67
2021/08/07 02:32:53;;;;;;;0.65;0.65;;;;;;;16.91;100.00;99814.75;5008438;28;20325;-67
2021/08/07 02:35:22;;;;;;;0.80;0.70;;;;;;;17.06;100.00;99807.84;5010754;28;20037;-68
2021/08/07 02:37:50;;;;;;;1.27;1.00;;;;;;;17.15;100.00;99817.00;5010284;28;20087;-67
2021/08/07 02:40:18;;;;;;;1.13;0.88;;;;;;;17.05;100.00;99812.53;5020827;28;20041;-67
2021/08/07 02:42:50;;;;;;;2.00;1.02;;;;;;;16.81;100.00;99799.41;5007491;28;20116;-67
2021/08/07 02:45:16;;;;;;;0.75;0.70;;;;;;;17.02;100.00;99799.78;5012829;28;20037;-67
2021/08/07 02:47:44;;;;;;;0.85;0.85;;;;;;;17.11;100.00;99793.78;5002703;28;20026;-68
2021/08/07 02:50:11;;;;;;;1.45;1.00;;;;;;;16.82;100.00;99803.69;5011826;28;20026;-67
2021/08/07 02:52:38;;;;;;;1.15;1.05;;;;;;;16.96;100.00;99796.00;5011070;28;20048;-68
2021/08/07 02:55:08;;;;;;;1.05;0.85;;;;;;;17.02;100.00;99802.50;5010939;28;20029;-68
2021/08/07 02:57:34;;;;;;;0.63;0.63;;;;;;;17.02;100.00;99801.72;5021248;28;20417;-68
2021/08/07 03:00:02;;;;;;;1.10;1.00;;;;;;;17.02;100.00;99796.28;5004363;28;20434;-68
2021/08/07 03:02:27;;;;;;;1.20;0.98;;;;;;;16.82;100.00;99795.53;5007551;28;20033;-67
2021/08/07 03:04:54;;;;;;;0.77;0.70;;;;;;;16.94;100.00;99798.38;5006441;28;20481;-68
2021/08/07 03:07:21;;;;;;;1.05;0.90;;;;;;;16.99;100.00;99794.41;5016510;28;20036;-68
2021/08/07 03:09:48;;;;;;;2.53;1.05;;;;;;;16.99;100.00;99786.25;5014339;28;20103;-67
2021/08/07 03:12:15;;;;;;;1.30;1.02;;;;;;;16.83;100.00;99789.66;5011473;28;20029;-67
2021/08/07 03:14:43;;;;;;;2.03;1.15;;;;;;;16.89;100.00;99800.81;5011877;28;20037;-67
2021/08/07 03:17:09;;;;;;;1.65;1.15;;;;;;;16.72;100.00;99802.69;5005200;28;20099;-67
2021/08/07 03:19:37;;;;;;;0.98;0.85;;;;;;;16.78;100.00;99797.53;5003389;28;20026;-67
2021/08/07 03:22:03;;;;;;;1.13;0.93;;;;;;;16.77;100.00;99801.44;5009568;28;20120;-67
2021/08/07 03:24:32;;;;;;;1.35;0.90;;;;;;;16.73;100.00;99800.72;5015918;28;20124;-68
2021/08/07 03:26:58;;;;;;;0.90;0.90;;;;;;;16.78;100.00;99797.53;5011704;28;20121;-67
2021/08/07 03:29:23;;;;;;;1.33;0.90;;;;;;;16.80;100.00;99797.88;5006333;28;20135;-67
2021/08/07 03:31:53;;;;;;;0.93;0.90;;;;;;;16.82;100.00;99798.25;4997891;28;20038;-66
2021/08/07 03:34:25;;;;;;;1.38;1.02;;;;;;;16.71;100.00;99803.88;5009641;28;20057;-67
2021/08/07 03:36:51;;;;;;;1.45;1.02;;;;;;;16.54;100.00;99798.75;5010365;28;20762;-67
2021/08/07 03:39:17;;;;;;;1.98;1.35;;;;;;;16.53;100.00;99797.97;5033263;28;20025;-67
2021/08/07 03:41:44;;;;;;;1.20;1.10;;;;;;;16.66;100.00;99800.84;5011248;28;20076;-68
2021/08/07 03:44:11;;;;;;;1.10;0.85;;;;;;;16.78;100.00;99803.72;5013971;28;20025;-67
2021/08/07 03:46:36;;;;;;;1.35;1.08;;;;;;;16.85;100.00;99802.81;4997059;28;20398;-67
2021/08/07 03:49:03;;;;;;;1.55;0.80;;;;;;;16.74;100.00;99807.72;5014264;28;20026;-67
2021/08/07 03:51:35;;;;;;;;;;;;;;;16.76;100.00;99800.66;5008672;28;20397;-67
2021/08/07 03:54:00;;;;;;;0.82;0.80;;;;;;;16.83;100.00;99795.09;5013130;28;19917;-68
2021/08/07 03:56:31;;;;;;;1.10;1.00;;;;;;;16.75;100.00;99804.56;5009222;28;20116;-67
2021/08/07 03:59:00;;;;;;;1.20;0.88;;;;;;;16.76;100.00;99803.38;5009844;28;20049;-67
2021/08/07 04:01:26;;;;;;;0.90;0.90;;;;;;;16.77;100.00;99806.88;5007544;28;20038;-67
2021/08/07 04:03:54;;;;;;;0.98;0.85;;;;;;;16.80;100.00;99806.78;5011257;28;20061;-68
2021/08/07 04:06:21;;;;;;;1.38;1.10;;;;;;;16.73;100.00;99800.72;5010446;28;20030;-67
2021/08/07 04:08:47;;;;;;;1.00;0.85;;;;;;;16.58;100.00;99802.16;5009267;28;21548;-66
2021/08/07 04:11:13;;;;;;;1.20;1.10;;;;;;;16.61;100.00;99804.03;5029961;28;20029;-66
2021/08/07 04:13:45;;;;;;;1.80;1.27;;;;;;;16.66;100.00;99807.06;5010100;28;20029;-67
2021/08/07 04:16:11;;;;;;;0.70;0.70;;;;;;;16.65;100.00;99807.47;5013424;28;20553;-69
2021/08/07 04:18:36;;;;;;;1.52;1.30;;;;;;;16.61;100.00;99804.03;5008826;28;20048;-66
2021/08/07 04:21:03;;;;;;;1.95;1.30;;;;;;;16.57;100.00;99808.81;5009044;28;20585;-67
2021/08/07 04:23:28;;;;;;;1.80;1.30;;;;;;;16.70;100.00;99813.22;5004759;28;20123;-66
2021/08/07 04:25:54;;;;;;;1.30;1.20;;;;;;;16.52;100.00;99801.09;5014306;28;20401;-66
2021/08/07 04:28:21;;;;;;;1.38;1.05;;;;;;;16.57;100.00;99804.13;5032199;28;20040;-67
2021/08/07 04:30:50;;;;;;;1.65;1.20;;;;;;;16.74;100.00;99818.59;4995057;28;20054;-70
2021/08/07 04:33:16;;;;;;;1.40;1.17;;;;;;;16.60;100.00;99806.00;5006480;28;20053;-69
2021/08/07 04:35:45;;;;;;;2.13;1.30;;;;;;;16.65;100.00;99818.34;5005481;28;20402;-66
2021/08/07 04:38:19;;;;;;;1.73;1.10;;;;;;;16.65;100.00;99815.63;5022424;28;20390;-66
2021/08/07 04:40:44;;;;;;;1.05;0.93;;;;;;;16.52;100.00;99807.31;5031664;28;20064;-66
2021/08/07 04:43:15;;;;;;;1.33;0.95;;;;;;;16.65;100.00;99810.19;5028233;28;20564;-68
2021/08/07 04:45:41;;;;;;;0.98;0.88;;;;;;;16.50;100.00;99808.91;5013445;28;20067;-67
2021/08/07 04:48:08;;;;;;;1.95;1.30;;;;;;;16.82;100.00;99809.13;5032017;28;20021;-67
2021/08/07 04:50:44;;;;;;;1.20;1.10;;;;;;;17.09;100.00;99807.03;5012161;28;20163;-69
2021/08/07 04:53:10;;;;;;;1.75;1.27;;;;;;;17.20;100.00;99809.53;5029707;28;20112;-67
2021/08/07 04:55:40;;;;;;;1.80;1.27;;;;;;;17.13;100.00;99824.03;5008001;28;20030;-66
2021/08/07 04:58:07;;;;;;;1.40;1.10;;;;;;;16.90;100.00;99830.31;5009034;28;20109;-69
2021/08/07 05:00:34;;;;;;;1.55;1.20;;;;;;;17.05;100.00;99828.09;5026667;28;20036;-68
2021/08/07 05:03:03;;;;;;;1.40;1.13;;;;;;;17.04;100.00;99830.03;5013480;28;20512;-67
2021/08/07 05:05:31;;;;;;;1.98;1.20;;;;;;;17.08;100.00;99824.53;5013594;28;20269;-67
2021/08/07 05:07:56;;;;;;;1.55;1.25;;;;;;;17.10;100.00;99827.59;5013705;28;20033;-66
2021/08/07 05:10:23;;;;;;;2.80;1.30;;;;;;;17.01;100.00;99821.97;5011409;28;20114;-68
2021/08/07 05:12:49;;;;;;;1.35;1.25;;;;;;;17.12;100.00;99817.84;4996301;28;20070;-66
2021/08/07 05:15:14;;;;;;;1.67;1.38;;;;;;;17.14;100.00;99822.84;5031400;28;20083;-67
2021/08/07 05:17:40;;;;;;;1.67;1.58;;;;;;;17.04;100.00;99823.81;5009200;28;20561;-67
2021/08/07 05:20:08;;;;;;;1.63;1.23;;;;;;;17.25;100.00;99825.38;5003270;28;20658;-68
2021/08/07 05:22:35;;;;;;;1.48;1.27;;;;;;;17.29;100.00;99837.72;5006448;28;20522;-67
2021/08/07 05:25:02;;;;;;;1.17;1.00;;;;;;;17.45;100.00;99831.56;4980465;28;20045;-66
2021/08/07 05:27:28;;;;;;;1.60;1.15;;;;;;;17.46;100.00;99835.81;4999227;28;20041;-67
2021/08/07 05:29:58;;;;;;;1.63;1.30;;;;;;;17.27;100.00;99831.13;5009256;28;20029;-67
2021/08/07 05:32:23;;;;;;;1.85;1.33;;;;;;;17.35;100.00;99841.47;5005282;28;20036;-66
2021/08/07 05:34:49;;;;;;;1.42;1.00;;;;;;;17.40;100.00;99834.78;5004324;28;20030;-67
2021/08/07 05:37:15;;;;;;;1.75;1.27;;;;;;;17.42;100.00;99832.41;5012251;28;20029;-70
2021/08/07 05:39:41;;;;;;;1.38;1.25;;;;;;;17.29;100.00;99826.81;5005851;28;20394;-69
2021/08/07 05:42:06;;;;;;;1.88;1.27;;;;;;;17.48;100.00;99833.44;5012972;28;20052;-68
2021/08/07 05:44:33;;;;;;;1.35;1.17;;;;;;;17.44;100.00;99836.22;5020429;28;20482;-67
2021/08/07 05:46:58;;;;;;;1.25;1.08;;;;;;;17.22;100.00;99829.69;5015877;28;20048;-67
2021/08/07 05:49:24;;;;;;;3.33;1.25;;;;;;;17.49;100.00;99833.06;5011383;28;20029;-67
2021/08/07 05:51:50;;;;;;;1.98;1.10;;;;;;;17.52;100.00;99829.47;5011591;28;20053;-67
2021/08/07 05:54:16;;;;;;;1.90;1.30;;;;;;;17.68;100.00;99829.53;5007704;28;20037;-66
2021/08/07 05:56:42;;;;;;;0.95;0.85;;;;;;;17.68;100.00;99829.53;5029279;28;20036;-67
2021/08/07 05:59:08;;;;;;;1.35;1.15;;;;;;;17.71;100.00;99831.38;5006140;28;20359;-68
2021/08/07 06:01:34;;;;;;;2.05;1.40;;;;;;;18.07;100.00;99825.13;4999705;28;20068;-67
2021/08/07 06:04:00;;;;;;;1.20;0.95;;;;;;;18.19;100.00;99824.47;4998147;28;20036;-67
2021/08/07 06:06:28;;;;;;;1.75;1.27;;;;;;;18.61;100.00;99826.94;4997936;28;20030;-67
2021/08/07 06:08:54;;;;;;;1.42;1.17;;;;;;;18.43;100.00;99825.81;4998629;28;20083;-66
2021/08/07 06:11:20;;;;;;;1.52;1.23;;;;;;;18.37;100.00;99822.81;4998535;28;20030;-66
2021/08/07 06:13:45;;;;;;;1.85;1.50;;;;;;;18.47;100.00;99835.47;4997574;28;20156;-66
2021/08/07 06:16:11;;;;;;;1.33;1.13;;;;;;;18.74;100.00;99824.25;4997780;28;20053;-67
2021/08/07 06:18:36;;;;;;;1.45;1.15;;;;;;;18.70;100.00;99829.03;5013209;28;20036;-67
2021/08/07 06:21:02;;;;;;;1.67;1.35;;;;;;;18.47;100.00;99823.78;4999688;28;20034;-68
2021/08/07 06:23:28;;;;;;;1.38;1.00;;;;;;;18.70;100.00;99820.84;5008332;28;20112;-66
2021/08/07 06:25:54;;;;;;;1.42;1.20;;;;;;;18.77;100.00;99826.13;5019686;28;20030;-67
2021/08/07 06:28:20;;;;;;;1.80;1.45;;;;;;;18.43;100.00;99818.41;5011203;28;20413;-66
2021/08/07 06:30:46;;;;;;;1.83;1.30;;;;;;;18.72;100.00;99826.63;5008433;28;20053;-66
2021/08/07 06:33:16;;;;;;;1.15;1.00;;;;;;;18.78;100.00;99838.56;5020902;28;20398;-66
2021/08/07 06:35:44;;;;;;;1.60;1.10;;;;;;;18.81;100.00;99837.72;5012417;28;20029;-66
2021/08/07 06:38:10;;;;;;;1.45;1.10;;;;;;;18.53;100.00;99838.44;5007050;28;20046;-67
2021/08/07 06:40:35;;;;;;;1.50;1.25;;;;;;;18.32;100.00;99836.22;5025928;28;20105;-67
2021/08/07 06:43:03;;;;;;;1.42;1.23;;;;;;;18.54;100.00;99831.78;5010490;28;20652;-70
2021/08/07 06:45:34;;;;;;;1.35;1.00;;;;;;;18.65;100.00;99838.50;5011898;28;20041;-66
2021/08/07 06:48:04;;;;;;;1.35;1.15;;;;;;;18.74;100.00;99846.84;5012591;28;20063;-67
2021/08/07 06:50:31;;;;;;;1.40;1.23;;;;;;;19.00;100.00;99850.44;5007779;28;20033;-67
2021/08/07 06:52:58;;;;;;;1.63;1.40;;;;;;;18.86;100.00;99848.09;5011921;28;20021;-66
2021/08/07 06:55:24;;;;;;;1.48;1.23;;;;;;;19.39;100.00;99849.41;5012608;28;20033;-67
2021/08/07 06:57:50;;;;;;;1.70;1.38;;;;;;;19.35;100.00;99837.81;5018385;28;20045;-66
2021/08/07 07:00:16;;;;;;;1.58;1.30;;;;;;;19.17;100.00;99851.16;5011935;28;20025;-68
2021/08/07 07:02:43;;;;;;;1.33;1.05;;;;;;;19.31;100.00;99846.06;5007798;28;20950;-67
2021/08/07 07:05:10;;;;;;;2.13;1.48;;;;;;;19.25;100.00;99858.72;5009339;28;20032;-67
2021/08/07 07:07:37;;;;;;;1.10;1.00;;;;;;;19.17;100.00;99856.59;5007524;28;20044;-66
2021/08/07 07:10:06;;;;;;;1.65;1.20;;;;;;;19.22;100.00;99856.84;5005209;28;20037;-66
2021/08/07 07:12:32;;;;;;;1.88;1.35;;;;;;;19.37;100.00;99849.84;5015104;28;20033;-67
2021/08/07 07:14:58;;;;;;;2.28;1.45;;;;;;;19.45;100.00;99842.19;5003349;28;20410;-66
2021/08/07 07:17:25;;;;;;;1.63;1.23;;;;;;;19.54;100.00;99843.09;5017072;28;20139;-66
2021/08/07 07:19:51;;;;;;;1.35;1.10;;;;;;;19.73;100.00;99850.31;5007413;28;20025;-67
2021/08/07 07:22:16;;;;;;;1.65;1.20;;;;;;;19.94;100.00;99853.63;5003307;28;20029;-66
2021/08/07 07:24:43;;;;;;;1.17;1.08;;;;;;;19.93;100.00;99860.28;5007277;28;20152;-67
2021/08/07 07:27:08;;;;;;;1.60;1.13;;;;;;;19.71;100.00;99855.44;5004296;28;20056;-67
2021/08/07 07:29:35;;;;;;;1.00;0.90;;;;;;;19.41;100.00;99847.00;5000328;28;20486;-67
2021/08/07 07:32:05;;;;;;;1.25;1.05;;;;;;;19.69;100.00;99855.13;4988605;28;20130;-66
2021/08/07 07:34:32;;;;;;;1.10;0.95;;;;;;;20.14;100.00;99857.63;5019628;28;20103;-67
2021/08/07 07:36:58;;;;;;;1.00;0.80;;;;;;;20.28;100.00;99864.66;5008157;28;20490;-66
2021/08/07 07:39:23;;;;;;;1.10;0.90;;;;;;;20.06;100.00;99861.03;5008496;28;20418;-68
2021/08/07 07:41:49;;;;;;;1.73;0.85;;;;;;;20.27;100.00;99854.91;5003702;28;20038;-66
2021/08/07 07:44:15;;;;;;;0.95;0.88;;;;;;;20.46;100.00;99873.06;4993534;28;20095;-70
2021/08/07 07:46:41;;;;;;;0.65;0.60;;;;;;;20.32;100.00;99857.88;5003591;28;20113;-66
2021/08/07 07:49:07;;;;;;;0.80;0.70;;;;;;;20.36;100.00;99858.50;4997451;28;20116;-66
2021/08/07 07:51:34;;;;;;;1.00;0.77;;;;;;;20.21;100.00;99867.63;5022344;28;20033;-67
2021/08/07 07:54:00;;;;;;;0.52;0.52;;;;;;;20.55;100.00;99867.69;5021655;28;20029;-71
2021/08/07 07:56:27;;;;;;;1.25;0.88;;;;;;;20.55;100.00;99871.19;5014845;28;20050;-70
2021/08/07 07:58:52;;;;;;;1.33;1.10;;;;;;;20.57;100.00;99871.50;5011532;28;20447;-67
2021/08/07 08:01:18;;;;;;;1.00;0.73;;;;;;;20.78;100.00;99852.81;5007694;28;20117;-67
2021/08/07 08:03:43;;;;;;;0.95;0.70;;;;;;;21.12;100.00;99858.28;4993708;28;20042;-66
2021/08/07 08:06:09;;;;;;;1.20;0.90;;;;;;;21.34;100.00;99867.28;5006009;28;20368;-67
2021/08/07 08:08:35;;;;;;;0.65;0.63;;;;;;;21.29;99.87;99863.13;4992449;28;20120;-66
2021/08/07 08:11:01;;;;;;;0.70;0.70;;;;;;;21.00;100.00;99868.06;5011150;28;20513;-67
2021/08/07 08:13:26;;;;;;;1.98;0.85;;;;;;;21.00;100.00;99867.31;5017739;28;20056;-70
2021/08/07 08:15:53;;;;;;;1.65;1.08;;;;;;;20.66;100.00;99863.38;5020143;28;20048;-71
2021/08/07 08:18:21;;;;;;;0.70;0.70;;;;;;;;;;4997502;28;20060;-67
2021/08/07 08:20:47;;;;;;;1.83;0.98;;;;;;;20.33;100.00;99864.09;4997197;28;20068;-67
2021/08/07 08:23:12;;;;;;;0.80;0.80;;;;;;;20.36;100.00;99868.69;5010854;28;20061;-67
2021/08/07 08:25:38;;;;;;;0.90;0.82;;;;;;;20.45;100.00;99868.78;4999281;28;20025;-67
2021/08/07 08:28:05;;;;;;;1.25;0.95;;;;;;;20.36;100.00;99863.22;5002664;28;20406;-67
2021/08/07 08:30:32;;;;;;;0.77;0.77;;;;;;;20.54;100.00;99863.41;5014862;28;20691;-67
2021/08/07 08:32:57;;;;;;;0.80;0.70;;;;;;;20.85;100.00;99855.34;5021424;28;20033;-66
2021/08/07 08:35:23;;;;;;;0.93;0.93;;;;;;;20.95;100.00;99854.94;5012625;28;20043;-66
2021/08/07 08:37:50;;;;;;;1.33;1.05;;;;;;;20.94;100.00;99858.13;5011258;28;20029;-67
2021/08/07 08:40:16;;;;;;;1.20;1.08;;;;;;;21.11;100.00;99854.03;5009760;28;20398;-69
2021/08/07 08:42:43;;;;;;;2.22;1.65;;;;;;;20.71;99.65;99848.38;4995033;28;20037;-66
2021/08/07 08:45:10;;;;;;;1.17;1.08;;;;;;;20.32;100.00;99854.38;4998498;28;20033;-67
2021/08/07 08:47:39;;;;;;;0.82;0.82;;;;;;;20.54;100.00;99853.22;5014399;28;20120;-71
2021/08/07 08:50:07;;;;;;;0.93;0.82;;;;;;;20.90;100.00;99852.03;5000864;28;20339;-68
2021/08/07 08:52:36;;;;;;;1.25;0.85;;;;;;;20.88;100.00;99847.00;5008755;28;20041;-67
2021/08/07 08:55:02;;;;;;;0.90;0.80;;;;;;;20.91;100.00;99845.31;5008823;28;20041;-68
2021/08/07 08:57:28;;;;;;;1.10;1.00;;;;;;;21.17;100.00;99838.56;5008411;28;20478;-70
2021/08/07 08:59:55;;;;;;;1.40;0.90;;;;;;;21.26;98.96;99847.59;5025082;28;20025;-67
2021/08/07 09:02:21;;;;;;;1.20;1.00;;;;;;;21.06;98.87;99844.41;5001128;28;20038;-67
2021/08/07 09:04:47;;;;;;;1.10;1.00;;;;;;;21.11;98.55;99848.56;5021444;28;20415;-68
2021/08/07 09:07:15;;;;;;;1.13;0.98;;;;;;;20.81;98.17;99849.97;5004092;28;20040;-66
2021/08/07 09:09:44;;;;;;;1.58;0.95;;;;;;;20.39;100.00;99848.66;5002698;28;20331;-69
2021/08/07 09:12:14;;;;;;;1.20;1.10;;;;;;;20.01;100.00;99853.38;5016520;23;20030;-69
2021/08/07 09:14:43;;;;;;;0.70;0.70;;;;;;;19.98;100.00;99854.25;5020309;28;20623;-71
2021/08/07 09:17:13;;;;;;;1.15;0.95;;;;;;;20.12;100.00;99851.06;5014446;28;20033;-72
2021/08/07 09:19:43;;;;;;;1.02;0.90;;;;;;;19.91;100.00;99854.47;4992761;28;20031;-71
2021/08/07 09:22:14;;;;;;;2.78;1.55;;;;;;;20.03;100.00;99850.97;5024453;28;20481;-71
2021/08/07 09:24:59;;;;;;;0.85;0.73;;;;;;;20.46;100.00;99856.66;4993158;28;20037;-72
2021/08/07 09:27:33;;;;;;;0.80;0.77;;;;;;;20.36;99.28;99857.75;5009875;28;20033;-70
2021/08/07 09:30:16;;;;;;;1.55;0.63;;;;;;;20.13;98.75;99852.63;5011565;28;20033;-69
2021/08/07 09:32:51;;;;;;;1.08;0.70;;;;;;;20.32;99.34;99852.41;4990063;28;20033;-71
2021/08/07 09:35:21;;;;;;;1.27;0.85;;;;;;;20.79;98.86;99838.69;5027925;28;20026;-71
2021/08/07 09:38:05;;;;;;;0.93;0.82;;;;;;;21.28;96.62;99847.16;5013107;28;20056;-70
2021/08/07 09:40:46;;;;;;;1.27;1.05;;;;;;;21.65;95.77;99842.63;5030382;28;20026;-71
2021/08/07 09:43:14;;;;;;;0.50;0.50;;;;;;;21.74;91.58;99831.72;5014167;28;20122;-71
2021/08/07 09:45:41;;;;;;;0.40;0.40;;;;;;;22.15;91.09;99834.78;5019979;28;20032;-69
2021/08/07 09:48:13;;;;;;;0.55;0.55;;;;;;;22.46;90.82;99848.44;5007154;28;20080;-71
2021/08/07 09:50:39;;;;;;;0.45;0.38;;;;;;;22.80;88.31;99839.19;5021191;28;20103;-69
2021/08/07 09:53:18;;;;;;;0.30;0.30;;;;;;;22.86;82.69;99837.38;5002794;28;20029;-70
2021/08/07 21:04:44;;;;;;;0.50;0.50;;;;;;;18.12;100.00;99634.59;5044852;28;20442;-69
2021/08/07 21:07:09;;;;;;;0.35;0.35;;;;;;;18.20;100.00;99635.16;5032122;28;20534;-66
2021/08/07 21:09:35;;;;;;;0.75;0.43;;;;;;;18.24;100.00;99639.34;5036983;28;20033;-66
2021/08/07 21:12:01;;;;;;;0.82;0.40;;;;;;;18.30;100.00;99636.84;5040162;28;20045;-66
2021/08/07 21:14:28;;;;;;;0.73;0.50;;;;;;;18.28;100.00;99639.25;5041538;28;20243;-67
2021/08/07 21:16:53;;;;;;;1.15;1.05;;;;;;;18.25;100.00;99638.16;5043384;28;20044;-65
2021/08/07 21:19:19;;;;;;;0.52;0.52;;;;;;;18.19;100.00;99630.94;5041337;28;20025;-66
2021/08/07 21:21:44;;;;;;;0.30;0.30;;;;;;;18.40;100.00;99630.34;5029574;28;20030;-66
2021/08/07 21:24:13;;;;;;;0.40;0.40;;;;;;;18.30;100.00;99628.66;5030079;28;20032;-66
2021/08/07 21:26:39;;;;;;;0.55;0.45;;;;;;;18.57;100.00;99629.88;5030184;28;20045;-67
2021/08/07 21:29:05;;;;;;;0.45;0.40;;;;;;;18.60;100.00;99639.16;5030355;28;20038;-66
2021/08/07 21:31:32;;;;;;;0.40;0.40;;;;;;;18.36;100.00;99621.50;5026270;28;20039;-67
2021/08/07 21:34:00;;;;;;;0.30;0.30;;;;;;;18.30;100.00;99621.25;5035338;28;20029;-67
2021/08/07 21:36:25;;;;;;;0.35;0.35;;;;;;;18.24;100.00;99622.22;5034706;28;20041;-65
2021/08/07 21:38:51;;;;;;;0.47;0.47;;;;;;;18.37;100.00;99621.06;5026430;28;20108;-66
2021/08/07 21:41:17;;;;;;;0.55;0.47;;;;;;;18.15;100.00;99624.81;5038030;28;20486;-66
2021/08/07 21:43:43;;;;;;;0.30;0.30;;;;;;;18.16;100.00;99615.44;5034664;28;20025;-66
2021/08/07 21:46:08;;;;;;;0.50;0.50;;;;;;;18.26;100.00;99608.91;5032938;28;20441;-67
2021/08/07 21:48:34;;;;;;;0.47;0.47;;;;;;;18.12;100.00;99615.53;5025928;28;20095;-67
2021/08/07 21:50:59;;;;;;;0.50;0.50;;;;;;;18.13;100.00;99608.13;5025983;28;20086;-66
2021/08/07 21:53:25;;;;;;;0.43;0.40;;;;;;;18.18;100.00;99607.59;5029114;28;20055;-66
2021/08/07 21:55:52;;;;;;;0.50;0.43;;;;;;;18.07;100.00;99607.88;5025503;28;20029;-67
2021/08/07 21:58:18;;;;;;;0.40;0.40;;;;;;;17.87;100.00;99605.31;5028553;28;20859;-66
2021/08/07 22:00:48;;;;;;;0.60;0.35;;;;;;;18.09;100.00;99602.78;5027942;28;20041;-67
2021/08/07 22:03:17;;;;;;;0.98;0.60;;;;;;;18.21;100.00;99595.84;5029282;28;20105;-66
2021/08/07 22:05:43;;;;;;;0.40;0.40;;;;;;;18.42;100.00;99587.03;5028230;28;20037;-67
2021/08/07 22:08:10;;;;;;;0.70;0.60;;;;;;;18.22;100.00;99594.63;5029406;28;20115;-66
2021/08/07 22:10:43;;;;;;;0.40;0.40;;;;;;;18.18;100.00;99589.28;5032299;28;20021;-67
2021/08/07 22:13:11;;;;;;;0.82;0.68;;;;;;;18.29;100.00;99594.44;5029195;28;20092;-67
2021/08/07 22:15:37;;;;;;;0.65;0.65;;;;;;;18.28;100.00;99598.34;5020179;28;20041;-68
2021/08/07 22:18:10;;;;;;;0.77;0.70;;;;;;;17.97;100.00;99595.31;5013086;28;20088;-66
2021/08/07 22:20:47;;;;;;;0.65;0.50;;;;;;;18.00;100.00;99594.47;5028829;28;20049;-67
2021/08/07 22:23:14;;;;;;;0.60;0.50;;;;;;;18.07;100.00;99598.94;5030765;28;20105;-67
2021/08/07 22:25:42;;;;;;;1.08;0.75;;;;;;;17.93;100.00;99595.41;5016055;28;20030;-67
2021/08/07 22:28:09;;;;;;;0.77;0.65;;;;;;;17.90;100.00;99596.25;5014520;28;20026;-67
2021/08/07 22:30:36;;;;;;;0.80;0.70;;;;;;;18.07;100.00;99596.22;5019331;28;20099;-66
2021/08/07 22:33:01;;;;;;;0.82;0.65;;;;;;;17.95;100.00;99584.84;5027846;28;20021;-66
2021/08/07 22:35:27;;;;;;;0.45;0.45;;;;;;;18.15;100.00;99592.09;5024489;28;20490;-67
2021/08/07 22:37:52;;;;;;;0.88;0.70;;;;;;;18.21;100.00;99585.69;5026207;28;20034;-68
2021/08/07 22:40:18;;;;;;;1.08;0.73;;;;;;;17.97;100.00;99589.84;5018437;28;20034;-67